ADDS METAR Data INFO
IDs: Format: Raw Decoded Include TAF

Data at: 0921 UTC 13 Dec 2017

KSMO 130851Z AUTO 35003KT 10SM FU CLR 15/M09 A3001 RMK AO2 SLP161 T01501094 58008
KSMO 130751Z AUTO 03003KT 10SM FU CLR 13/M04 A3003 RMK AO2 SLP168 T01281039 402720111
KSMO 130651Z AUTO 05004KT 10SM FU CLR 13/M02 A3003 RMK AO2 SLP169 T01331022
KSMO 130551Z AUTO 03004KT 10SM FU CLR 14/02 A3004 RMK AO2 SLP169 T01390017 10217 20139 55001
KSMO 130451Z AUTO 04003KT 10SM FU CLR 14/03 A3004 RMK AO2 SLP170 T01440033
KSMO 130351Z 06003KT 5SM HZ FU CLR 15/09 A3004 RMK AO2 SLP171 T01500089
KSMO 130251Z 00000KT 5SM HZ FU CLR 16/09 A3004 RMK AO2 SLP172 T01560089 51003
KSMO 130151Z 00000KT 6SM HZ FU CLR 17/09 A3004 RMK AO2 SLP171 T01670094
KSMO 130125Z 00000KT 6SM HZ FU CLR 18/10 A3004 RMK AO2 T01780100
KSMO 130051Z COR 16003KT 7SM FU CLR 18/10 A3004 RMK AO2 SLP170 T01830100
KSMO 122351Z 22007KT 10SM CLR 22/03 A3003 RMK AO2 SLP169 T02170028 10272 20217 56017
KSMO 122251Z 25005KT 10SM CLR 23/M01 A3004 RMK AO2 SLP173 T02281006
KSMO 122151Z 26007KT 10SM CLR 24/M09 A3006 RMK AO2 SLP178 T02391089
KSMO 122051Z 23006KT 10SM CLR 26/M16 A3008 RMK AO2 SLP185 T02611161 58038
KSMO 121951Z 00000KT 10SM CLR 27/M19 A3012 RMK AO2 SLP198 T02671194
KSMO 121851Z 02003KT 10SM CLR 27/M21 A3016 RMK AO2 SLP212 T02671206
KSMO 121751Z 00000KT 10SM CLR 24/M08 A3019 RMK AO2 SLP223 T02441083 10244 20111 50003
KSMO 121651Z 08004KT 10SM CLR 18/M08 A3020 RMK AO2 SLP225 T01831078
KSMO 121551Z 08005KT 10SM CLR 13/M07 A3019 RMK AO2 SLP223 T01331067
KSMO 121451Z 02004KT 10SM CLR 12/M10 A3019 RMK AO2 SLP221 T01221100 53001
KSMO 121351Z AUTO 02005KT 10SM CLR 16/M16 A3018 RMK AO2 SLP218 T01561161
KSMO 121251Z AUTO 06004KT 10SM CLR 12/M09 A3018 RMK AO2 SLP218 T01171094
KSMO 121151Z AUTO 06005KT 10SM CLR 12/M09 A3018 RMK AO2 SLP220 T01221094 10194 20117 58001
KSMO 121051Z AUTO 07005KT 10SM CLR 13/M09 A3019 RMK AO2 SLP221 T01281089
KSMO 120951Z AUTO 06004KT 10SM CLR 13/M09 A3019 RMK AO2 SLP221 T01281089
KSMO 120851Z AUTO 05005KT 10SM CLR 13/M08 A3019 RMK AO2 SLP220 T01331078 56002
KSMO 120751Z AUTO 04003KT 10SM CLR 16/M13 A3019 RMK AO2 SLP220 T01561133 402830117
KSMO 120651Z AUTO 02004KT 10SM CLR 18/M17 A3019 RMK AO2 SLP221 T01831167
KSMO 120551Z AUTO 03004KT 10SM CLR 15/M04 A3019 RMK AO2 SLP222 T01501044 10217 20139 51003
KSMO 120451Z AUTO 05003KT 10SM CLR 14/00 A3019 RMK AO2 SLP223 T01440000
KSMO 120351Z 05004KT 10SM CLR 15/02 A3019 RMK AO2 SLP221 T01500022
KSMO 120251Z 00000KT 10SM CLR 16/03 A3018 RMK AO2 SLP219 T01610033 53006
KSMO 120151Z 00000KT 10SM CLR 18/03 A3017 RMK AO2 SLP216 T01780033
KSMO 120051Z 00000KT 10SM CLR 19/M01 A3016 RMK AO2 SLP212 T01941011
KSMO 112351Z 26004KT 10SM CLR 22/M08 A3016 RMK AO2 SLP213 T02171078 10283 20217 56001
KSMO 112251Z 25005KT 10SM CLR 24/M10 A3016 RMK AO2 SLP212 T02391100
KSMO 112151Z 27004KT 10SM CLR 25/M13 A3016 RMK AO2 SLP211 T02501128